sensor_id;sensor_type;location;lat;lon;timestamp;pressure;altitude;pressure_sealevel;temperature;humidity
2188;BME280;1100;52.014;8.540;2023-04-28T00:00:12;100133.72;;;6.49;58.47
2188;BME280;1100;52.014;8.540;2023-04-28T00:02:37;100110.84;;;6.48;58.24
2188;BME280;1100;52.014;8.540;2023-04-28T00:05:03;100119.13;;;6.48;58.40
2188;BME280;1100;52.014;8.540;2023-04-28T00:07:28;100109.22;;;6.51;58.56
2188;BME280;1100;52.014;8.540;2023-04-28T00:09:53;100113.16;;;6.54;58.48
2188;BME280;1100;52.014;8.540;2023-04-28T00:12:21;100113.16;;;6.54;58.34
2188;BME280;1100;52.014;8.540;2023-04-28T00:14:46;100109.22;;;6.51;58.38
2188;BME280;1100;52.014;8.540;2023-04-28T00:17:11;100109.63;;;6.50;58.74
2188;BME280;1100;52.014;8.540;2023-04-28T00:19:37;100100.59;;;6.49;58.60
2188;BME280;1100;52.014;8.540;2023-04-28T00:22:02;100095.47;;;6.47;58.51
2188;BME280;1100;52.014;8.540;2023-04-28T00:24:29;100093.47;;;6.48;58.58
2188;BME280;1100;52.014;8.540;2023-04-28T00:26:54;100096.22;;;6.52;58.69
2188;BME280;1100;52.014;8.540;2023-04-28T00:29:21;100080.44;;;6.52;58.66
2188;BME280;1100;52.014;8.540;2023-04-28T00:31:46;100084.75;;;6.53;58.43
2188;BME280;1100;52.014;8.540;2023-04-28T00:34:12;100088.31;;;6.54;58.99
2188;BME280;1100;52.014;8.540;2023-04-28T00:36:39;100088.31;;;6.54;58.52
2188;BME280;1100;52.014;8.540;2023-04-28T00:39:04;100076.88;;;6.52;58.99
2188;BME280;1100;52.014;8.540;2023-04-28T00:41:29;100075.69;;;6.53;58.78
2188;BME280;1100;52.014;8.540;2023-04-28T00:43:55;100065.84;;;6.52;58.88
2188;BME280;1100;52.014;8.540;2023-04-28T00:46:28;100065.03;;;6.51;58.70
2188;BME280;1100;52.014;8.540;2023-04-28T00:48:54;100059.94;;;6.50;58.75
2188;BME280;1100;52.014;8.540;2023-04-28T00:51:23;100056.03;;;6.47;58.77
2188;BME280;1100;52.014;8.540;2023-04-28T00:53:49;100050.94;;;6.42;58.83
2188;BME280;1100;52.014;8.540;2023-04-28T00:56:15;100051.75;;;6.39;58.83
2188;BME280;1100;52.014;8.540;2023-04-28T00:58:42;100055.72;;;6.38;58.96
2188;BME280;1100;52.014;8.540;2023-04-28T01:01:08;100054.16;;;6.37;59.04
2188;BME280;1100;52.014;8.540;2023-04-28T01:03:35;100051.75;;;6.39;59.00
2188;BME280;1100;52.014;8.540;2023-04-28T01:06:03;100052.56;;;6.39;58.88
2188;BME280;1100;52.014;8.540;2023-04-28T01:08:30;100052.97;;;6.38;59.13
2188;BME280;1100;52.014;8.540;2023-04-28T01:10:55;100056.94;;;6.37;59.23
2188;BME280;1100;52.014;8.540;2023-04-28T01:13:21;100049.06;;;6.35;59.19
2188;BME280;1100;52.014;8.540;2023-04-28T01:15:46;100043.13;;;6.37;59.08
2188;BME280;1100;52.014;8.540;2023-04-28T01:18:12;100040.31;;;6.40;59.37
2188;BME280;1100;52.014;8.540;2023-04-28T01:20:41;100028.84;;;6.42;59.36
2188;BME280;1100;52.014;8.540;2023-04-28T01:23:12;100030.78;;;6.45;59.50
2188;BME280;1100;52.014;8.540;2023-04-28T01:25:38;100034.72;;;6.47;59.61
2188;BME280;1100;52.014;8.540;2023-04-28T01:28:04;100020.13;;;6.47;59.45
2188;BME280;1100;52.014;8.540;2023-04-28T01:30:29;100018.91;;;6.48;59.19
2188;BME280;1100;52.014;8.540;2023-04-28T01:32:54;100017.38;;;6.47;59.43
2188;BME280;1100;52.014;8.540;2023-04-28T01:35:20;100011.84;;;6.47;59.50
2188;BME280;1100;52.014;8.540;2023-04-28T01:37:46;100005.53;;;6.46;59.59
2188;BME280;1100;52.014;8.540;2023-04-28T01:40:11;100002.00;;;6.46;59.41
2188;BME280;1100;52.014;8.540;2023-04-28T01:42:37;99994.88;;;6.45;59.66
2188;BME280;1100;52.014;8.540;2023-04-28T01:45:02;99996.81;;;6.48;59.91
2188;BME280;1100;52.014;8.540;2023-04-28T01:47:29;99996.00;;;6.51;59.74
2188;BME280;1100;52.014;8.540;2023-04-28T01:49:54;99990.47;;;6.51;59.81
2188;BME280;1100;52.014;8.540;2023-04-28T01:52:20;99993.63;;;6.53;59.50
2188;BME280;1100;52.014;8.540;2023-04-28T01:54:47;99984.53;;;6.53;59.93
2188;BME280;1100;52.014;8.540;2023-04-28T01:57:12;99979.81;;;6.53;59.76
2188;BME280;1100;52.014;8.540;2023-04-28T01:59:37;99978.25;;;6.52;59.84
2188;BME280;1100;52.014;8.540;2023-04-28T02:02:03;99972.72;;;6.52;59.86
2188;BME280;1100;52.014;8.540;2023-04-28T02:04:28;99981.38;;;6.54;59.90
2188;BME280;1100;52.014;8.540;2023-04-28T02:06:53;99969.91;;;6.56;59.94
2188;BME280;1100;52.014;8.540;2023-04-28T02:09:19;99971.50;;;6.57;59.78
2188;BME280;1100;52.014;8.540;2023-04-28T02:11:44;99966.38;;;6.55;59.77
2188;BME280;1100;52.014;8.540;2023-04-28T02:14:09;99964.06;;;6.50;60.10
2188;BME280;1100;52.014;8.540;2023-04-28T02:16:35;99959.00;;;6.45;60.16
2188;BME280;1100;52.014;8.540;2023-04-28T02:19:00;99956.72;;;6.40;60.30
2188;BME280;1100;52.014;8.540;2023-04-28T02:21:26;99954.78;;;6.37;60.02
2188;BME280;1100;52.014;8.540;2023-04-28T02:23:52;99951.63;;;6.34;60.29
2188;BME280;1100;52.014;8.540;2023-04-28T02:26:17;99956.34;;;6.38;60.34
2188;BME280;1100;52.014;8.540;2023-04-28T02:28:45;99952.00;;;6.37;60.48
2188;BME280;1100;52.014;8.540;2023-04-28T02:31:10;99953.19;;;6.35;60.59
2188;BME280;1100;52.014;8.540;2023-04-28T02:33:37;99950.09;;;6.33;60.57
2188;BME280;1100;52.014;8.540;2023-04-28T02:36:04;99952.84;;;6.33;60.72
2188;BME280;1100;52.014;8.540;2023-04-28T02:38:30;99950.09;;;6.33;60.50
2188;BME280;1100;52.014;8.540;2023-04-28T02:40:59;99937.44;;;6.32;60.36
2188;BME280;1100;52.014;8.540;2023-04-28T02:43:26;99941.00;;;6.33;60.83
2188;BME280;1100;52.014;8.540;2023-04-28T02:45:52;99937.38;;;6.40;60.92
2188;BME280;1100;52.014;8.540;2023-04-28T02:48:17;99931.03;;;6.43;60.82
2188;BME280;1100;52.014;8.540;2023-04-28T02:50:43;99938.06;;;6.47;60.93
2188;BME280;1100;52.014;8.540;2023-04-28T02:53:10;99933.25;;;6.55;61.24
2188;BME280;1100;52.014;8.540;2023-04-28T02:55:35;99926.09;;;6.58;60.89
2188;BME280;1100;52.014;8.540;2023-04-28T02:58:01;99930.00;;;6.60;61.08
2188;BME280;1100;52.014;8.540;2023-04-28T03:00:26;99925.31;;;6.57;60.86
2188;BME280;1100;52.014;8.540;2023-04-28T03:02:51;99921.03;;;6.53;60.97
2188;BME280;1100;52.014;8.540;2023-04-28T03:05:16;99919.06;;;6.53;61.43
2188;BME280;1100;52.014;8.540;2023-04-28T03:07:42;99912.81;;;6.49;61.14
2188;BME280;1100;52.014;8.540;2023-04-28T03:10:07;99920.69;;;6.51;61.38
2188;BME280;1100;52.014;8.540;2023-04-28T03:12:33;99910.03;;;6.49;61.33
2188;BME280;1100;52.014;8.540;2023-04-28T03:14:58;99909.56;;;6.54;61.38
2188;BME280;1100;52.014;8.540;2023-04-28T03:17:23;99909.56;;;6.54;61.15
2188;BME280;1100;52.014;8.540;2023-04-28T03:19:49;99909.22;;;6.52;61.26
2188;BME280;1100;52.014;8.540;2023-04-28T03:22:14;99909.56;;;6.54;61.28
2188;BME280;1100;52.014;8.540;2023-04-28T03:24:40;99906.78;;;6.54;61.50
2188;BME280;1100;52.014;8.540;2023-04-28T03:27:05;99896.97;;;6.53;61.41
2188;BME280;1100;52.014;8.540;2023-04-28T03:29:30;99893.78;;;6.55;61.52
2188;BME280;1100;52.014;8.540;2023-04-28T03:31:56;99896.97;;;6.53;61.46
2188;BME280;1100;52.014;8.540;2023-04-28T03:34:21;99896.16;;;6.53;61.36
2188;BME280;1100;52.014;8.540;2023-04-28T03:36:46;99899.34;;;6.51;61.55
2188;BME280;1100;52.014;8.540;2023-04-28T03:39:12;99889.09;;;6.52;61.46
2188;BME280;1100;52.014;8.540;2023-04-28T03:41:37;99893.91;;;6.47;61.44
2188;BME280;1100;52.014;8.540;2023-04-28T03:44:02;99892.31;;;6.46;61.52
2188;BME280;1100;52.014;8.540;2023-04-28T03:46:28;99890.75;;;6.45;61.48
2188;BME280;1100;52.014;8.540;2023-04-28T03:48:53;99884.81;;;6.47;62.09
2188;BME280;1100;52.014;8.540;2023-04-28T03:51:18;99875.75;;;6.46;61.96
2188;BME280;1100;52.014;8.540;2023-04-28T03:53:44;99880.00;;;6.51;62.26
2188;BME280;1100;52.014;8.540;2023-04-28T03:56:09;99883.16;;;6.53;61.74
2188;BME280;1100;52.014;8.540;2023-04-28T03:58:34;99878.84;;;6.52;61.84
2188;BME280;1100;52.014;8.540;2023-04-28T04:01:00;99884.34;;;6.52;62.01
2188;BME280;1100;52.014;8.540;2023-04-28T04:03:26;99880.75;;;6.55;62.21
2188;BME280;1100;52.014;8.540;2023-04-28T04:05:51;99879.13;;;6.58;62.22
2188;BME280;1100;52.014;8.540;2023-04-28T04:08:18;99872.00;;;6.60;62.12
2188;BME280;1100;52.014;8.540;2023-04-28T04:10:43;99880.97;;;6.68;62.26
2188;BME280;1100;52.014;8.540;2023-04-28T04:13:08;99883.31;;;6.70;62.33
2188;BME280;1100;52.014;8.540;2023-04-28T04:15:34;99877.81;;;6.70;61.94
2188;BME280;1100;52.014;8.540;2023-04-28T04:17:59;99878.97;;;6.69;62.19
2188;BME280;1100;52.014;8.540;2023-04-28T04:20:25;99874.63;;;6.71;62.18
2188;BME280;1100;52.014;8.540;2023-04-28T04:22:50;99878.09;;;6.76;62.45
2188;BME280;1100;52.014;8.540;2023-04-28T04:25:16;99867.34;;;6.81;62.41
2188;BME280;1100;52.014;8.540;2023-04-28T04:27:41;99869.69;;;6.83;62.38
2188;BME280;1100;52.014;8.540;2023-04-28T04:30:07;99864.97;;;6.83;62.08
2188;BME280;1100;52.014;8.540;2023-04-28T04:32:32;99867.72;;;6.83;62.37
2188;BME280;1100;52.014;8.540;2023-04-28T04:34:58;99863.00;;;6.84;62.32
2188;BME280;1100;52.014;8.540;2023-04-28T04:37:23;99862.56;;;6.85;62.24
2188;BME280;1100;52.014;8.540;2023-04-28T04:39:48;99855.47;;;6.84;62.09
2188;BME280;1100;52.014;8.540;2023-04-28T04:42:14;99858.22;;;6.84;62.48
2188;BME280;1100;52.014;8.540;2023-04-28T04:44:39;99858.19;;;6.88;62.53
2188;BME280;1100;52.014;8.540;2023-04-28T04:47:04;99856.97;;;6.89;62.41
2188;BME280;1100;52.014;8.540;2023-04-28T04:49:30;99862.06;;;6.91;62.75
2188;BME280;1100;52.014;8.540;2023-04-28T04:51:55;99849.03;;;6.91;62.37
2188;BME280;1100;52.014;8.540;2023-04-28T04:54:21;99860.06;;;6.95;62.43
2188;BME280;1100;52.014;8.540;2023-04-28T04:56:46;99855.72;;;6.94;62.38
2188;BME280;1100;52.014;8.540;2023-04-28T04:59:11;99853.72;;;6.94;62.60
2188;BME280;1100;52.014;8.540;2023-04-28T05:01:37;99858.47;;;6.94;62.77
2188;BME280;1100;52.014;8.540;2023-04-28T05:04:02;99847.06;;;6.92;62.86
2188;BME280;1100;52.014;8.540;2023-04-28T05:06:28;99841.88;;;6.94;62.71
2188;BME280;1100;52.014;8.540;2023-04-28T05:08:53;99830.00;;;6.97;62.93
2188;BME280;1100;52.014;8.540;2023-04-28T05:11:20;99833.06;;;7.03;63.07
2188;BME280;1100;52.014;8.540;2023-04-28T05:13:46;99823.94;;;7.06;62.88
2188;BME280;1100;52.014;8.540;2023-04-28T05:16:11;99826.28;;;7.07;62.98
2188;BME280;1100;52.014;8.540;2023-04-28T05:18:36;99822.31;;;7.08;62.95
2188;BME280;1100;52.014;8.540;2023-04-28T05:21:02;99822.25;;;7.12;63.11
2188;BME280;1100;52.014;8.540;2023-04-28T05:23:27;99821.84;;;7.14;63.06
2188;BME280;1100;52.014;8.540;2023-04-28T05:25:53;99821.00;;;7.17;63.02
2188;BME280;1100;52.014;8.540;2023-04-28T05:28:19;99820.91;;;7.20;63.00
2188;BME280;1100;52.014;8.540;2023-04-28T05:30:44;99818.88;;;7.25;63.25
2188;BME280;1100;52.014;8.540;2023-04-28T05:33:09;99817.94;;;7.31;63.40
2188;BME280;1100;52.014;8.540;2023-04-28T05:35:35;99821.34;;;7.39;63.27
2188;BME280;1100;52.014;8.540;2023-04-28T05:38:01;99828.69;;;7.50;63.26
2188;BME280;1100;52.014;8.540;2023-04-28T05:40:26;99823.84;;;7.54;63.47
2188;BME280;1100;52.014;8.540;2023-04-28T05:42:52;99825.72;;;7.60;63.58
2188;BME280;1100;52.014;8.540;2023-04-28T05:45:18;99826.00;;;7.66;63.57
2188;BME280;1100;52.014;8.540;2023-04-28T05:47:46;99833.44;;;7.69;63.65
2188;BME280;1100;52.014;8.540;2023-04-28T05:50:11;99821.94;;;7.71;63.29
2188;BME280;1100;52.014;8.540;2023-04-28T05:52:37;99818.31;;;7.74;63.49
2188;BME280;1100;52.014;8.540;2023-04-28T05:55:05;99811.09;;;7.80;63.50
2188;BME280;1100;52.014;8.540;2023-04-28T05:57:31;99809.38;;;7.87;63.47
2188;BME280;1100;52.014;8.540;2023-04-28T05:59:56;99810.81;;;7.95;63.25
2188;BME280;1100;52.014;8.540;2023-04-28T06:02:22;99812.22;;;8.03;63.51
2188;BME280;1100;52.014;8.540;2023-04-28T06:04:47;99810.50;;;8.09;63.53
2188;BME280;1100;52.014;8.540;2023-04-28T06:07:12;99812.66;;;8.18;63.52
2188;BME280;1100;52.014;8.540;2023-04-28T06:09:38;99812.06;;;8.27;63.59
2188;BME280;1100;52.014;8.540;2023-04-28T06:12:03;99813.47;;;8.35;63.79
2188;BME280;1100;52.014;8.540;2023-04-28T06:14:29;99816.50;;;8.41;63.63
2188;BME280;1100;52.014;8.540;2023-04-28T06:16:54;99808.56;;;8.43;63.66
2188;BME280;1100;52.014;8.540;2023-04-28T06:19:20;99808.06;;;8.48;63.78
2188;BME280;1100;52.014;8.540;2023-04-28T06:21:45;99808.38;;;8.51;63.70
2188;BME280;1100;52.014;8.540;2023-04-28T06:24:14;99811.91;;;8.55;63.84
2188;BME280;1100;52.014;8.540;2023-04-28T06:26:39;99805.56;;;8.54;63.75
2188;BME280;1100;52.014;8.540;2023-04-28T06:29:04;99803.91;;;8.57;63.71
2188;BME280;1100;52.014;8.540;2023-04-28T06:31:30;99803.47;;;8.58;63.77
2188;BME280;1100;52.014;8.540;2023-04-28T06:33:55;99803.84;;;8.60;64.11
2188;BME280;1100;52.014;8.540;2023-04-28T06:36:21;99805.38;;;8.62;64.01
2188;BME280;1100;52.014;8.540;2023-04-28T06:38:47;99801.31;;;8.66;63.97
2188;BME280;1100;52.014;8.540;2023-04-28T06:41:12;99797.25;;;8.71;63.92
2188;BME280;1100;52.014;8.540;2023-04-28T06:43:38;99795.88;;;8.79;63.97
2188;BME280;1100;52.014;8.540;2023-04-28T06:46:03;99790.13;;;8.87;63.92
2188;BME280;1100;52.014;8.540;2023-04-28T06:48:29;99786.50;;;8.90;63.94
2188;BME280;1100;52.014;8.540;2023-04-28T06:50:54;99788.75;;;8.95;63.68
2188;BME280;1100;52.014;8.540;2023-04-28T06:53:19;99792.09;;;9.03;63.86
2188;BME280;1100;52.014;8.540;2023-04-28T06:55:45;99786.03;;;9.08;64.02
2188;BME280;1100;52.014;8.540;2023-04-28T06:58:10;99786.03;;;9.08;63.93
2188;BME280;1100;52.014;8.540;2023-04-28T07:00:36;99784.59;;;9.03;63.68
2188;BME280;1100;52.014;8.540;2023-04-28T07:03:01;99796.19;;;8.98;64.01
2188;BME280;1100;52.014;8.540;2023-04-28T07:05:26;99787.53;;;8.96;64.10
2188;BME280;1100;52.014;8.540;2023-04-28T07:07:53;99784.31;;;8.97;63.93
2188;BME280;1100;52.014;8.540;2023-04-28T07:10:21;99779.91;;;9.00;63.83
2188;BME280;1100;52.014;8.540;2023-04-28T07:12:49;99780.16;;;9.06;64.03
2188;BME280;1100;52.014;8.540;2023-04-28T07:15:16;99778.41;;;9.12;64.08
2188;BME280;1100;52.014;8.540;2023-04-28T07:17:41;99773.66;;;9.13;63.78
2188;BME280;1100;52.014;8.540;2023-04-28T07:20:07;99770.44;;;9.14;63.96
2188;BME280;1100;52.014;8.540;2023-04-28T07:22:32;99780.22;;;9.19;64.15
2188;BME280;1100;52.014;8.540;2023-04-28T07:24:57;99777.22;;;9.26;64.16
2188;BME280;1100;52.014;8.540;2023-04-28T07:27:23;99773.41;;;9.37;64.07
2188;BME280;1100;52.014;8.540;2023-04-28T07:29:48;99771.22;;;9.44;64.12
2188;BME280;1100;52.014;8.540;2023-04-28T07:32:13;99763.03;;;9.54;64.21
2188;BME280;1100;52.014;8.540;2023-04-28T07:34:39;99765.69;;;9.57;64.27
2188;BME280;1100;52.014;8.540;2023-04-28T07:37:04;99764.72;;;9.64;64.05
2188;BME280;1100;52.014;8.540;2023-04-28T07:39:31;99767.81;;;9.66;64.08
2188;BME280;1100;52.014;8.540;2023-04-28T07:41:58;99768.50;;;9.70;64.50
2188;BME280;1100;52.014;8.540;2023-04-28T07:44:24;99761.28;;;9.73;64.11
2188;BME280;1100;52.014;8.540;2023-04-28T07:46:49;99759.72;;;9.72;63.98
2188;BME280;1100;52.014;8.540;2023-04-28T07:49:15;99762.50;;;9.72;64.33
2188;BME280;1100;52.014;8.540;2023-04-28T07:51:40;99761.97;;;9.77;64.34
2188;BME280;1100;52.014;8.540;2023-04-28T07:54:06;99757.84;;;9.82;64.41
2188;BME280;1100;52.014;8.540;2023-04-28T07:56:31;99753.75;;;9.87;64.20
2188;BME280;1100;52.014;8.540;2023-04-28T07:58:56;99749.97;;;9.80;64.11
2188;BME280;1100;52.014;8.540;2023-04-28T08:01:22;99754.84;;;9.76;64.17
2188;BME280;1100;52.014;8.540;2023-04-28T08:03:47;99746.19;;;9.74;64.28
2188;BME280;1100;52.014;8.540;2023-04-28T08:06:13;99738.19;;;9.76;64.52
2188;BME280;1100;52.014;8.540;2023-04-28T08:08:38;99735.75;;;9.78;64.37
2188;BME280;1100;52.014;8.540;2023-04-28T08:11:03;99737.09;;;9.87;64.72
2188;BME280;1100;52.014;8.540;2023-04-28T08:13:29;99733.31;;;9.93;64.98
2188;BME280;1100;52.014;8.540;2023-04-28T08:15:54;99731.78;;;10.05;64.90
2188;BME280;1100;52.014;8.540;2023-04-28T08:18:21;99733.78;;;10.18;64.75
2188;BME280;1100;52.014;8.540;2023-04-28T08:20:46;99718.09;;;10.24;64.62
2188;BME280;1100;52.014;8.540;2023-04-28T08:23:12;99721.28;;;10.35;64.79
2188;BME280;1100;52.014;8.540;2023-04-28T08:25:37;99718.41;;;10.52;64.99
2188;BME280;1100;52.014;8.540;2023-04-28T08:28:02;99722.25;;;10.68;65.02
2188;BME280;1100;52.014;8.540;2023-04-28T08:30:28;99718.22;;;10.82;65.09
2188;BME280;1100;52.014;8.540;2023-04-28T08:32:54;99721.19;;;10.88;64.94
2188;BME280;1100;52.014;8.540;2023-04-28T08:35:19;99728.06;;;10.96;64.99
2188;BME280;1100;52.014;8.540;2023-04-28T08:37:44;99725.03;;;11.03;64.88
2188;BME280;1100;52.014;8.540;2023-04-28T08:40:10;99720.31;;;11.13;64.92
2188;BME280;1100;52.014;8.540;2023-04-28T08:42:36;99729.31;;;11.17;64.68
2188;BME280;1100;52.014;8.540;2023-04-28T08:45:03;99729.38;;;11.27;64.98
2188;BME280;1100;52.014;8.540;2023-04-28T08:47:34;99727.09;;;11.34;64.94
2188;BME280;1100;52.014;8.540;2023-04-28T08:50:04;99728.22;;;11.37;64.96
2188;BME280;1100;52.014;8.540;2023-04-28T08:52:30;99731.75;;;11.38;64.42
2188;BME280;1100;52.014;8.540;2023-04-28T08:55:03;99734.53;;;11.38;64.95
2188;BME280;1100;52.014;8.540;2023-04-28T08:57:47;99732.66;;;11.34;64.77
2188;BME280;1100;52.014;8.540;2023-04-28T09:00:13;99731.69;;;11.28;64.81
2188;BME280;1100;52.014;8.540;2023-04-28T09:02:39;99729.81;;;11.25;65.03
2188;BME280;1100;52.014;8.540;2023-04-28T09:05:07;99730.16;;;11.27;65.07
2188;BME280;1100;52.014;8.540;2023-04-28T09:07:33;99724.91;;;11.29;65.16
2188;BME280;1100;52.014;8.540;2023-04-28T09:10:22;99738.56;;;11.37;65.08
2188;BME280;1100;52.014;8.540;2023-04-28T09:12:53;99737.66;;;11.40;65.19
2188;BME280;1100;52.014;8.540;2023-04-28T09:17:53;99744.75;;;11.41;65.65
2188;BME280;1100;52.014;8.540;2023-04-28T09:20:21;99733.63;;;11.41;65.89
2188;BME280;1100;52.014;8.540;2023-04-28T09:22:48;99745.66;;;11.38;65.62
2188;BME280;1100;52.014;8.540;2023-04-28T09:25:14;99740.38;;;11.30;65.76
2188;BME280;1100;52.014;8.540;2023-04-28T09:27:40;99740.84;;;11.29;65.86
2188;BME280;1100;52.014;8.540;2023-04-28T09:30:06;99732.94;;;11.27;66.03
2188;BME280;1100;52.014;8.540;2023-04-28T09:32:32;99723.69;;;11.30;66.15
2188;BME280;1100;52.014;8.540;2023-04-28T09:34:58;99707.31;;;11.32;66.07
2188;BME280;1100;52.014;8.540;2023-04-28T09:37:27;99705.16;;;11.37;66.00
2188;BME280;1100;52.014;8.540;2023-04-28T09:40:01;99699.72;;;11.33;65.89
2188;BME280;1100;52.014;8.540;2023-04-28T09:42:37;99698.91;;;11.23;66.01
2188;BME280;1100;52.014;8.540;2023-04-28T09:45:05;99699.31;;;11.12;65.95
2188;BME280;1100;52.014;8.540;2023-04-28T09:47:31;99702.31;;;11.05;66.04
2188;BME280;1100;52.014;8.540;2023-04-28T09:50:02;99706.00;;;11.02;66.19
2188;BME280;1100;52.014;8.540;2023-04-28T09:52:27;99699.34;;;10.99;66.47
2188;BME280;1100;52.014;8.540;2023-04-28T09:54:54;99706.69;;;11.06;67.06
2188;BME280;1100;52.014;8.540;2023-04-28T09:57:21;99711.53;;;11.15;67.27
2188;BME280;1100;52.014;8.540;2023-04-28T09:59:49;99714.56;;;11.30;67.50
2188;BME280;1100;52.014;8.540;2023-04-28T10:02:15;99716.03;;;11.44;67.63
2188;BME280;1100;52.014;8.540;2023-04-28T10:04:45;99715.00;;;11.51;67.88
2188;BME280;1100;52.014;8.540;2023-04-28T10:07:12;99716.69;;;11.48;68.14
2188;BME280;1100;52.014;8.540;2023-04-28T10:09:51;99706.97;;;11.53;68.57
2188;BME280;1100;52.014;8.540;2023-04-28T10:12:17;99714.00;;;11.67;68.50
2188;BME280;1100;52.014;8.540;2023-04-28T10:14:43;99697.50;;;11.82;68.88
2188;BME280;1100;52.014;8.540;2023-04-28T10:17:16;99707.06;;;12.03;69.02
2188;BME280;1100;52.014;8.540;2023-04-28T10:19:45;99711.31;;;12.27;69.05
2188;BME280;1100;52.014;8.540;2023-04-28T10:25:26;99702.81;;;12.30;69.10
2188;BME280;1100;52.014;8.540;2023-04-28T10:27:55;99687.84;;;12.65;69.19
2188;BME280;1100;52.014;8.540;2023-04-28T10:30:23;99689.53;;;13.10;68.87
2188;BME280;1100;52.014;8.540;2023-04-28T10:40:31;99680.97;;;13.51;68.74
2188;BME280;1100;52.014;8.540;2023-04-28T10:43:00;99687.00;;;13.40;68.59
2188;BME280;1100;52.014;8.540;2023-04-28T10:48:20;99681.78;;;13.04;68.91
2188;BME280;1100;52.014;8.540;2023-04-28T10:56:17;99675.59;;;12.44;69.65
2188;BME280;1100;52.014;8.540;2023-04-28T10:58:53;99675.13;;;12.36;69.76
2188;BME280;1100;52.014;8.540;2023-04-28T11:01:31;99679.44;;;12.37;69.66
2188;BME280;1100;52.014;8.540;2023-04-28T11:04:04;99673.41;;;12.39;69.90
2188;BME280;1100;52.014;8.540;2023-04-28T11:06:34;99678.53;;;12.40;69.83
2188;BME280;1100;52.014;8.540;2023-04-28T11:09:02;99671.88;;;12.38;69.78
2188;BME280;1100;52.014;8.540;2023-04-28T11:11:29;99661.47;;;12.38;69.89
2188;BME280;1100;52.014;8.540;2023-04-28T11:17:00;99659.16;;;12.37;70.02
2188;BME280;1100;52.014;8.540;2023-04-28T11:19:33;99649.56;;;12.38;69.83
2188;BME280;1100;52.014;8.540;2023-04-28T11:22:01;99654.38;;;12.46;70.14
2188;BME280;1100;52.014;8.540;2023-04-28T11:24:28;99648.00;;;12.55;70.12
2188;BME280;1100;52.014;8.540;2023-04-28T11:26:55;99648.19;;;12.61;69.96
2188;BME280;1100;52.014;8.540;2023-04-28T11:31:57;99643.34;;;12.90;69.77
2188;BME280;1100;52.014;8.540;2023-04-28T11:34:23;99643.31;;;13.08;69.98
2188;BME280;1100;52.014;8.540;2023-04-28T11:36:49;99645.91;;;13.31;69.72
2188;BME280;1100;52.014;8.540;2023-04-28T11:39:15;99644.81;;;13.47;69.39
2188;BME280;1100;52.014;8.540;2023-04-28T11:41:42;99629.09;;;13.59;69.31
2188;BME280;1100;52.014;8.540;2023-04-28T11:44:14;99627.91;;;13.85;69.21
2188;BME280;1100;52.014;8.540;2023-04-28T11:49:09;99629.47;;;14.35;69.07
2188;BME280;1100;52.014;8.540;2023-04-28T11:51:36;99626.97;;;14.37;68.64
2188;BME280;1100;52.014;8.540;2023-04-28T11:54:06;99620.19;;;14.28;68.26
2188;BME280;1100;52.014;8.540;2023-04-28T11:56:36;99625.19;;;14.24;68.65
2188;BME280;1100;52.014;8.540;2023-04-28T11:59:12;99640.22;;;14.27;68.69
2188;BME280;1100;52.014;8.540;2023-04-28T12:01:54;99633.88;;;14.26;68.32
2188;BME280;1100;52.014;8.540;2023-04-28T12:07:18;99621.94;;;14.26;68.19
2188;BME280;1100;52.014;8.540;2023-04-28T12:10:10;99625.31;;;14.30;68.56
2188;BME280;1100;52.014;8.540;2023-04-28T12:12:36;99620.13;;;14.38;68.46
2188;BME280;1100;52.014;8.540;2023-04-28T12:15:03;99621.00;;;14.44;68.34
2188;BME280;1100;52.014;8.540;2023-04-28T12:17:33;99614.75;;;14.49;68.35
2188;BME280;1100;52.014;8.540;2023-04-28T12:20:00;99613.69;;;14.47;68.24
2188;BME280;1100;52.014;8.540;2023-04-28T12:22:26;99607.03;;;14.44;67.90
2188;BME280;1100;52.014;8.540;2023-04-28T12:27:30;99612.03;;;14.40;67.56
2188;BME280;1100;52.014;8.540;2023-04-28T12:29:56;99602.09;;;14.39;67.88
2188;BME280;1100;52.014;8.540;2023-04-28T12:32:42;99600.09;;;14.54;68.06
2188;BME280;1100;52.014;8.540;2023-04-28T12:35:08;99598.59;;;14.68;67.84
2188;BME280;1100;52.014;8.540;2023-04-28T12:37:34;99599.97;;;14.73;67.74
2188;BME280;1100;52.014;8.540;2023-04-28T12:39:59;99598.88;;;14.70;67.57
2188;BME280;1100;52.014;8.540;2023-04-28T12:42:25;99611.69;;;14.62;67.58
2188;BME280;1100;52.014;8.540;2023-04-28T12:44:51;99605.69;;;14.54;67.50
2188;BME280;1100;52.014;8.540;2023-04-28T12:47:16;99601.53;;;14.50;67.48
2188;BME280;1100;52.014;8.540;2023-04-28T12:49:42;99605.41;;;14.52;67.72
2188;BME280;1100;52.014;8.540;2023-04-28T12:52:08;99600.78;;;14.49;67.81
2188;BME280;1100;52.014;8.540;2023-04-28T12:54:35;99603.84;;;14.51;67.83
2188;BME280;1100;52.014;8.540;2023-04-28T12:57:01;99601.94;;;14.57;67.96
2188;BME280;1100;52.014;8.540;2023-04-28T12:59:27;99599.91;;;14.58;67.71
2188;BME280;1100;52.014;8.540;2023-04-28T13:01:53;99603.56;;;14.49;67.65
2188;BME280;1100;52.014;8.540;2023-04-28T13:04:19;99592.66;;;14.51;67.85
2188;BME280;1100;52.014;8.540;2023-04-28T13:06:45;99599.66;;;14.71;68.14
2188;BME280;1100;52.014;8.540;2023-04-28T13:09:11;99587.53;;;14.89;68.11
2188;BME280;1100;52.014;8.540;2023-04-28T13:11:37;99597.78;;;15.07;67.97
2188;BME280;1100;52.014;8.540;2023-04-28T13:14:03;99594.00;;;15.11;67.87
2188;BME280;1100;52.014;8.540;2023-04-28T13:16:29;99593.16;;;15.04;68.01
2188;BME280;1100;52.014;8.540;2023-04-28T13:18:55;99597.75;;;14.92;67.91
2188;BME280;1100;52.014;8.540;2023-04-28T13:21:22;99592.25;;;14.83;68.01
2188;BME280;1100;52.014;8.540;2023-04-28T13:23:48;99586.63;;;14.68;67.60
2188;BME280;1100;52.014;8.540;2023-04-28T13:26:14;99579.75;;;14.54;67.86
2188;BME280;1100;52.014;8.540;2023-04-28T13:28:39;99587.44;;;14.44;67.98
2188;BME280;1100;52.014;8.540;2023-04-28T13:31:04;99582.50;;;14.39;68.09
2188;BME280;1100;52.014;8.540;2023-04-28T13:33:30;99577.78;;;14.30;68.23
2188;BME280;1100;52.014;8.540;2023-04-28T13:35:57;99577.97;;;14.26;68.69
2188;BME280;1100;52.014;8.540;2023-04-28T13:38:22;99572.09;;;14.24;68.54
2188;BME280;1100;52.014;8.540;2023-04-28T13:40:48;99569.28;;;14.24;68.63
2188;BME280;1100;52.014;8.540;2023-04-28T13:43:13;99565.53;;;14.27;68.62
2188;BME280;1100;52.014;8.540;2023-04-28T13:45:38;99565.94;;;14.35;68.77
2188;BME280;1100;52.014;8.540;2023-04-28T13:48:04;99562.13;;;14.48;69.06
2188;BME280;1100;52.014;8.540;2023-04-28T13:50:29;99566.25;;;14.52;69.08
2188;BME280;1100;52.014;8.540;2023-04-28T13:52:54;99565.53;;;14.67;69.34
2188;BME280;1100;52.014;8.540;2023-04-28T13:55:20;99566.09;;;14.71;68.96
2188;BME280;1100;52.014;8.540;2023-04-28T13:57:52;99565.88;;;14.60;68.78